sensor_id;sensor_type;location;lat;lon;timestamp;P1;durP1;ratioP1;P2;durP2;ratioP2
23222;SDS011;11780;13.904;100.620;2023-12-14T00:00:14;29.30;;;22.97;;
23222;SDS011;11780;13.904;100.620;2023-12-14T00:06:11;26.67;;;23.90;;
23222;SDS011;11780;13.904;100.620;2023-12-14T00:08:42;28.88;;;25.08;;
23222;SDS011;11780;13.904;100.620;2023-12-14T00:11:13;30.98;;;23.70;;
23222;SDS011;11780;13.904;100.620;2023-12-14T00:13:44;34.47;;;24.73;;
23222;SDS011;11780;13.904;100.620;2023-12-14T00:16:15;30.27;;;23.40;;
23222;SDS011;11780;13.904;100.620;2023-12-14T00:18:45;30.48;;;24.02;;
23222;SDS011;11780;13.904;100.620;2023-12-14T00:21:16;27.48;;;23.20;;
23222;SDS011;11780;13.904;100.620;2023-12-14T00:23:47;29.48;;;23.48;;
23222;SDS011;11780;13.904;100.620;2023-12-14T00:26:18;31.00;;;26.20;;
23222;SDS011;11780;13.904;100.620;2023-12-14T00:28:49;33.72;;;25.45;;
23222;SDS011;11780;13.904;100.620;2023-12-14T00:31:28;28.52;;;25.48;;
23222;SDS011;11780;13.904;100.620;2023-12-14T00:34:00;29.38;;;24.35;;
23222;SDS011;11780;13.904;100.620;2023-12-14T00:36:30;25.80;;;23.30;;
23222;SDS011;11780;13.904;100.620;2023-12-14T00:39:02;30.77;;;24.58;;
23222;SDS011;11780;13.904;100.620;2023-12-14T00:41:33;29.80;;;23.23;;
23222;SDS011;11780;13.904;100.620;2023-12-14T00:44:04;26.17;;;23.47;;
23222;SDS011;11780;13.904;100.620;2023-12-14T00:46:35;26.60;;;23.63;;
23222;SDS011;11780;13.904;100.620;2023-12-14T00:49:05;28.50;;;24.43;;
23222;SDS011;11780;13.904;100.620;2023-12-14T00:51:35;27.98;;;23.63;;
23222;SDS011;11780;13.904;100.620;2023-12-14T00:54:07;25.77;;;23.15;;
23222;SDS011;11780;13.904;100.620;2023-12-14T00:56:38;27.23;;;23.77;;
23222;SDS011;11780;13.904;100.620;2023-12-14T00:59:08;29.10;;;24.03;;
23222;SDS011;11780;13.904;100.620;2023-12-14T01:01:39;28.63;;;23.40;;
23222;SDS011;11780;13.904;100.620;2023-12-14T01:04:09;28.23;;;23.33;;
23222;SDS011;11780;13.904;100.620;2023-12-14T01:06:40;28.80;;;22.83;;
23222;SDS011;11780;13.904;100.620;2023-12-14T01:09:11;28.43;;;22.97;;
23222;SDS011;11780;13.904;100.620;2023-12-14T01:11:41;26.58;;;21.83;;
23222;SDS011;11780;13.904;100.620;2023-12-14T01:14:12;24.93;;;20.73;;
23222;SDS011;11780;13.904;100.620;2023-12-14T01:16:42;25.43;;;21.87;;
23222;SDS011;11780;13.904;100.620;2023-12-14T01:19:13;23.53;;;21.00;;
23222;SDS011;11780;13.904;100.620;2023-12-14T01:21:44;24.93;;;22.23;;
23222;SDS011;11780;13.904;100.620;2023-12-14T01:24:14;26.10;;;21.93;;
23222;SDS011;11780;13.904;100.620;2023-12-14T01:26:45;25.38;;;21.50;;
23222;SDS011;11780;13.904;100.620;2023-12-14T01:29:16;25.30;;;20.47;;
23222;SDS011;11780;13.904;100.620;2023-12-14T01:31:46;23.03;;;20.63;;
23222;SDS011;11780;13.904;100.620;2023-12-14T01:34:17;24.17;;;21.60;;
23222;SDS011;11780;13.904;100.620;2023-12-14T01:36:47;27.63;;;20.27;;
23222;SDS011;11780;13.904;100.620;2023-12-14T01:39:18;23.80;;;21.30;;
23222;SDS011;11780;13.904;100.620;2023-12-14T01:41:48;22.50;;;20.20;;
23222;SDS011;11780;13.904;100.620;2023-12-14T01:44:19;21.45;;;19.15;;
23222;SDS011;11780;13.904;100.620;2023-12-14T01:46:50;25.00;;;20.77;;
23222;SDS011;11780;13.904;100.620;2023-12-14T01:49:20;24.80;;;20.13;;
23222;SDS011;11780;13.904;100.620;2023-12-14T01:51:51;27.47;;;19.87;;
23222;SDS011;11780;13.904;100.620;2023-12-14T01:54:21;21.87;;;19.57;;
23222;SDS011;11780;13.904;100.620;2023-12-14T01:56:52;20.07;;;17.97;;
23222;SDS011;11780;13.904;100.620;2023-12-14T01:59:23;23.33;;;20.70;;
23222;SDS011;11780;13.904;100.620;2023-12-14T02:01:54;27.23;;;20.57;;
23222;SDS011;11780;13.904;100.620;2023-12-14T02:04:26;26.35;;;19.17;;
23222;SDS011;11780;13.904;100.620;2023-12-14T02:06:57;24.73;;;20.97;;
23222;SDS011;11780;13.904;100.620;2023-12-14T02:09:28;23.58;;;19.85;;
23222;SDS011;11780;13.904;100.620;2023-12-14T02:11:58;24.13;;;20.63;;
23222;SDS011;11780;13.904;100.620;2023-12-14T02:14:29;23.02;;;19.73;;
23222;SDS011;11780;13.904;100.620;2023-12-14T02:16:59;23.13;;;19.02;;
23222;SDS011;11780;13.904;100.620;2023-12-14T02:19:30;22.33;;;19.00;;
23222;SDS011;11780;13.904;100.620;2023-12-14T02:22:00;27.57;;;21.03;;
23222;SDS011;11780;13.904;100.620;2023-12-14T02:24:31;25.63;;;20.63;;
23222;SDS011;11780;13.904;100.620;2023-12-14T02:27:01;22.13;;;19.77;;
23222;SDS011;11780;13.904;100.620;2023-12-14T02:29:32;21.90;;;19.03;;
23222;SDS011;11780;13.904;100.620;2023-12-14T02:32:02;23.17;;;19.83;;
23222;SDS011;11780;13.904;100.620;2023-12-14T02:34:33;22.90;;;18.33;;
23222;SDS011;11780;13.904;100.620;2023-12-14T02:37:04;26.27;;;18.97;;
23222;SDS011;11780;13.904;100.620;2023-12-14T02:39:34;19.27;;;17.37;;
23222;SDS011;11780;13.904;100.620;2023-12-14T02:42:05;22.23;;;18.50;;
23222;SDS011;11780;13.904;100.620;2023-12-14T02:44:35;23.63;;;18.35;;
23222;SDS011;11780;13.904;100.620;2023-12-14T02:47:06;20.75;;;17.25;;
23222;SDS011;11780;13.904;100.620;2023-12-14T02:49:37;18.67;;;16.67;;
23222;SDS011;11780;13.904;100.620;2023-12-14T02:52:07;21.33;;;17.37;;
23222;SDS011;11780;13.904;100.620;2023-12-14T02:54:38;21.90;;;16.67;;
23222;SDS011;11780;13.904;100.620;2023-12-14T02:57:09;19.77;;;16.55;;
23222;SDS011;11780;13.904;100.620;2023-12-14T02:59:40;20.13;;;16.83;;
23222;SDS011;11780;13.904;100.620;2023-12-14T03:02:10;24.93;;;16.97;;
23222;SDS011;11780;13.904;100.620;2023-12-14T03:04:41;19.60;;;16.37;;
23222;SDS011;11780;13.904;100.620;2023-12-14T03:07:12;18.60;;;16.70;;
23222;SDS011;11780;13.904;100.620;2023-12-14T03:09:42;19.53;;;15.60;;
23222;SDS011;11780;13.904;100.620;2023-12-14T13:34:33;29.42;;;20.63;;
23222;SDS011;11780;13.904;100.620;2023-12-14T13:37:04;27.52;;;20.10;;
23222;SDS011;11780;13.904;100.620;2023-12-14T13:42:07;25.20;;;20.15;;
23222;SDS011;11780;13.904;100.620;2023-12-14T13:44:38;25.67;;;20.40;;
23222;SDS011;11780;13.904;100.620;2023-12-14T13:47:08;27.30;;;19.75;;
23222;SDS011;11780;13.904;100.620;2023-12-14T13:49:39;20.97;;;17.97;;
23222;SDS011;11780;13.904;100.620;2023-12-14T13:52:10;24.57;;;18.60;;
23222;SDS011;11780;13.904;100.620;2023-12-14T13:54:40;25.83;;;19.43;;
23222;SDS011;11780;13.904;100.620;2023-12-14T13:57:11;24.97;;;20.23;;
23222;SDS011;11780;13.904;100.620;2023-12-14T13:59:41;25.90;;;18.67;;
23222;SDS011;11780;13.904;100.620;2023-12-14T14:02:12;26.40;;;18.57;;
23222;SDS011;11780;13.904;100.620;2023-12-14T14:04:43;23.30;;;18.98;;
23222;SDS011;11780;13.904;100.620;2023-12-14T14:07:15;23.15;;;18.55;;
23222;SDS011;11780;13.904;100.620;2023-12-14T14:09:46;23.10;;;18.40;;
23222;SDS011;11780;13.904;100.620;2023-12-14T14:12:17;21.13;;;17.93;;
23222;SDS011;11780;13.904;100.620;2023-12-14T14:17:19;21.57;;;17.00;;
23222;SDS011;11780;13.904;100.620;2023-12-14T14:19:49;23.80;;;19.70;;
23222;SDS011;11780;13.904;100.620;2023-12-14T14:22:20;28.00;;;19.23;;
23222;SDS011;11780;13.904;100.620;2023-12-14T14:24:51;22.75;;;17.95;;
23222;SDS011;11780;13.904;100.620;2023-12-14T14:27:22;24.92;;;19.17;;
23222;SDS011;11780;13.904;100.620;2023-12-14T14:29:53;22.38;;;18.23;;
23222;SDS011;11780;13.904;100.620;2023-12-14T14:32:26;22.23;;;17.83;;
23222;SDS011;11780;13.904;100.620;2023-12-14T14:37:28;21.35;;;16.95;;
23222;SDS011;11780;13.904;100.620;2023-12-14T14:39:59;18.97;;;16.57;;
23222;SDS011;11780;13.904;100.620;2023-12-14T14:42:29;20.73;;;17.17;;
23222;SDS011;11780;13.904;100.620;2023-12-14T14:45:01;21.70;;;17.38;;
23222;SDS011;11780;13.904;100.620;2023-12-14T14:47:36;22.23;;;17.52;;
23222;SDS011;11780;13.904;100.620;2023-12-14T14:52:37;26.02;;;19.20;;
23222;SDS011;11780;13.904;100.620;2023-12-14T14:55:08;24.38;;;20.17;;
23222;SDS011;11780;13.904;100.620;2023-12-14T14:57:39;25.52;;;20.25;;
23222;SDS011;11780;13.904;100.620;2023-12-14T15:00:10;24.57;;;19.67;;
23222;SDS011;11780;13.904;100.620;2023-12-14T15:02:40;26.05;;;20.65;;
23222;SDS011;11780;13.904;100.620;2023-12-14T15:05:11;25.07;;;19.43;;
23222;SDS011;11780;13.904;100.620;2023-12-14T15:07:42;25.52;;;19.05;;
23222;SDS011;11780;13.904;100.620;2023-12-14T15:10:12;26.73;;;19.07;;
23222;SDS011;11780;13.904;100.620;2023-12-14T15:12:43;24.43;;;18.30;;
23222;SDS011;11780;13.904;100.620;2023-12-14T15:15:13;32.50;;;19.50;;
23222;SDS011;11780;13.904;100.620;2023-12-14T15:17:44;25.43;;;18.63;;
23222;SDS011;11780;13.904;100.620;2023-12-14T15:20:15;25.43;;;18.67;;
23222;SDS011;11780;13.904;100.620;2023-12-14T15:22:45;20.87;;;18.30;;
23222;SDS011;11780;13.904;100.620;2023-12-14T15:25:16;20.63;;;16.67;;
23222;SDS011;11780;13.904;100.620;2023-12-14T15:27:47;23.30;;;17.92;;
23222;SDS011;11780;13.904;100.620;2023-12-14T15:30:17;24.10;;;17.60;;
23222;SDS011;11780;13.904;100.620;2023-12-14T15:32:48;21.50;;;16.83;;
23222;SDS011;11780;13.904;100.620;2023-12-14T15:35:19;21.87;;;17.33;;
23222;SDS011;11780;13.904;100.620;2023-12-14T15:37:50;21.90;;;16.67;;
23222;SDS011;11780;13.904;100.620;2023-12-14T15:40:21;21.27;;;17.58;;
23222;SDS011;11780;13.904;100.620;2023-12-14T15:42:52;27.08;;;17.42;;
23222;SDS011;11780;13.904;100.620;2023-12-14T15:45:25;22.67;;;18.25;;
23222;SDS011;11780;13.904;100.620;2023-12-14T15:47:57;26.60;;;18.85;;
23222;SDS011;11780;13.904;100.620;2023-12-14T15:50:28;31.13;;;19.33;;
23222;SDS011;11780;13.904;100.620;2023-12-14T15:55:29;23.45;;;18.67;;
23222;SDS011;11780;13.904;100.620;2023-12-14T15:58:00;29.35;;;20.95;;
23222;SDS011;11780;13.904;100.620;2023-12-14T16:00:30;24.10;;;18.50;;
23222;SDS011;11780;13.904;100.620;2023-12-14T16:03:02;24.50;;;19.58;;
23222;SDS011;11780;13.904;100.620;2023-12-14T16:05:34;23.55;;;20.02;;
23222;SDS011;11780;13.904;100.620;2023-12-14T16:08:05;25.35;;;19.52;;
23222;SDS011;11780;13.904;100.620;2023-12-14T16:10:37;26.63;;;20.27;;
23222;SDS011;11780;13.904;100.620;2023-12-14T16:13:08;25.50;;;19.27;;
23222;SDS011;11780;13.904;100.620;2023-12-14T16:15:39;24.07;;;19.13;;
23222;SDS011;11780;13.904;100.620;2023-12-14T16:18:09;28.63;;;19.13;;
23222;SDS011;11780;13.904;100.620;2023-12-14T16:20:41;24.48;;;18.85;;
23222;SDS011;11780;13.904;100.620;2023-12-14T16:23:12;27.80;;;19.88;;
23222;SDS011;11780;13.904;100.620;2023-12-14T16:25:43;26.60;;;19.30;;
23222;SDS011;11780;13.904;100.620;2023-12-14T16:28:15;31.90;;;19.27;;
23222;SDS011;11780;13.904;100.620;2023-12-14T16:30:47;23.90;;;18.73;;
23222;SDS011;11780;13.904;100.620;2023-12-14T16:33:18;27.15;;;19.58;;
23222;SDS011;11780;13.904;100.620;2023-12-14T16:35:49;26.65;;;20.30;;
23222;SDS011;11780;13.904;100.620;2023-12-14T16:38:20;25.52;;;19.98;;
23222;SDS011;11780;13.904;100.620;2023-12-14T16:40:51;25.30;;;20.23;;
23222;SDS011;11780;13.904;100.620;2023-12-14T16:43:22;23.58;;;18.92;;
23222;SDS011;11780;13.904;100.620;2023-12-14T16:45:53;23.03;;;19.93;;
23222;SDS011;11780;13.904;100.620;2023-12-14T16:48:24;27.63;;;20.35;;
23222;SDS011;11780;13.904;100.620;2023-12-14T16:50:54;25.27;;;20.27;;
23222;SDS011;11780;13.904;100.620;2023-12-14T16:53:25;25.93;;;19.83;;
23222;SDS011;11780;13.904;100.620;2023-12-14T16:55:55;22.70;;;18.43;;
23222;SDS011;11780;13.904;100.620;2023-12-14T16:58:30;23.05;;;19.15;;
23222;SDS011;11780;13.904;100.620;2023-12-14T17:01:04;25.27;;;20.45;;
23222;SDS011;11780;13.904;100.620;2023-12-14T17:06:05;22.58;;;18.63;;
23222;SDS011;11780;13.904;100.620;2023-12-14T17:08:40;26.02;;;20.38;;
23222;SDS011;11780;13.904;100.620;2023-12-14T17:11:10;25.47;;;19.57;;
23222;SDS011;11780;13.904;100.620;2023-12-14T17:16:15;25.20;;;20.52;;
23222;SDS011;11780;13.904;100.620;2023-12-14T17:18:46;27.88;;;20.67;;
23222;SDS011;11780;13.904;100.620;2023-12-14T17:23:52;24.17;;;21.52;;
23222;SDS011;11780;13.904;100.620;2023-12-14T17:26:24;26.35;;;21.80;;
23222;SDS011;11780;13.904;100.620;2023-12-14T17:28:57;32.40;;;23.30;;
23222;SDS011;11780;13.904;100.620;2023-12-14T17:31:27;30.77;;;23.57;;
23222;SDS011;11780;13.904;100.620;2023-12-14T17:33:58;31.98;;;23.67;;
23222;SDS011;11780;13.904;100.620;2023-12-14T17:36:29;28.87;;;23.37;;
23222;SDS011;11780;13.904;100.620;2023-12-14T17:38:59;26.07;;;23.00;;
23222;SDS011;11780;13.904;100.620;2023-12-14T17:41:31;29.77;;;23.65;;
23222;SDS011;11780;13.904;100.620;2023-12-14T17:44:02;29.52;;;24.48;;
23222;SDS011;11780;13.904;100.620;2023-12-14T17:46:33;30.17;;;24.10;;
23222;SDS011;11780;13.904;100.620;2023-12-14T17:49:04;30.02;;;23.77;;
23222;SDS011;11780;13.904;100.620;2023-12-14T17:51:39;30.45;;;24.38;;
23222;SDS011;11780;13.904;100.620;2023-12-14T17:54:11;28.95;;;23.90;;
23222;SDS011;11780;13.904;100.620;2023-12-14T17:56:42;28.92;;;23.65;;
23222;SDS011;11780;13.904;100.620;2023-12-14T17:59:15;27.55;;;23.63;;
23222;SDS011;11780;13.904;100.620;2023-12-14T18:01:45;27.70;;;22.67;;
23222;SDS011;11780;13.904;100.620;2023-12-14T18:04:16;30.50;;;23.85;;
23222;SDS011;11780;13.904;100.620;2023-12-14T18:06:47;26.42;;;22.38;;
23222;SDS011;11780;13.904;100.620;2023-12-14T18:09:18;25.85;;;22.38;;
23222;SDS011;11780;13.904;100.620;2023-12-14T18:11:49;30.27;;;23.48;;
23222;SDS011;11780;13.904;100.620;2023-12-14T18:14:19;29.63;;;22.47;;
23222;SDS011;11780;13.904;100.620;2023-12-14T18:16:50;25.55;;;21.45;;
23222;SDS011;11780;13.904;100.620;2023-12-14T18:19:21;29.73;;;22.83;;
23222;SDS011;11780;13.904;100.620;2023-12-14T18:21:56;30.42;;;23.27;;
23222;SDS011;11780;13.904;100.620;2023-12-14T18:24:26;29.80;;;22.43;;
23222;SDS011;11780;13.904;100.620;2023-12-14T18:26:57;34.13;;;21.77;;
23222;SDS011;11780;13.904;100.620;2023-12-14T18:29:27;27.57;;;22.50;;
23222;SDS011;11780;13.904;100.620;2023-12-14T18:31:58;28.25;;;21.45;;
23222;SDS011;11780;13.904;100.620;2023-12-14T18:34:29;25.33;;;22.45;;
23222;SDS011;11780;13.904;100.620;2023-12-14T18:36:59;26.67;;;22.10;;
23222;SDS011;11780;13.904;100.620;2023-12-14T18:39:30;27.08;;;23.33;;
23222;SDS011;11780;13.904;100.620;2023-12-14T18:42:01;28.02;;;22.40;;
23222;SDS011;11780;13.904;100.620;2023-12-14T18:44:34;29.25;;;23.42;;
23222;SDS011;11780;13.904;100.620;2023-12-14T18:47:08;30.33;;;23.77;;
23222;SDS011;11780;13.904;100.620;2023-12-14T18:49:39;31.42;;;24.10;;
23222;SDS011;11780;13.904;100.620;2023-12-14T18:54:40;30.88;;;24.42;;
23222;SDS011;11780;13.904;100.620;2023-12-14T18:57:11;34.07;;;25.13;;
23222;SDS011;11780;13.904;100.620;2023-12-14T18:59:42;31.23;;;24.33;;
23222;SDS011;11780;13.904;100.620;2023-12-14T19:02:12;27.50;;;23.43;;
23222;SDS011;11780;13.904;100.620;2023-12-14T19:04:43;33.97;;;25.30;;
23222;SDS011;11780;13.904;100.620;2023-12-14T19:07:15;27.85;;;24.92;;
23222;SDS011;11780;13.904;100.620;2023-12-14T19:09:46;31.60;;;24.77;;
23222;SDS011;11780;13.904;100.620;2023-12-14T19:12:16;30.10;;;26.10;;
23222;SDS011;11780;13.904;100.620;2023-12-14T19:14:47;30.95;;;24.90;;
23222;SDS011;11780;13.904;100.620;2023-12-14T19:17:18;31.47;;;25.73;;
23222;SDS011;11780;13.904;100.620;2023-12-14T19:22:44;29.05;;;24.63;;
23222;SDS011;11780;13.904;100.620;2023-12-14T19:25:15;34.13;;;26.53;;
23222;SDS011;11780;13.904;100.620;2023-12-14T19:27:46;33.70;;;26.17;;
23222;SDS011;11780;13.904;100.620;2023-12-14T19:30:21;34.05;;;25.70;;
23222;SDS011;11780;13.904;100.620;2023-12-14T19:32:52;32.93;;;25.70;;
23222;SDS011;11780;13.904;100.620;2023-12-14T19:35:23;35.85;;;26.42;;
23222;SDS011;11780;13.904;100.620;2023-12-14T19:37:54;33.10;;;26.23;;
23222;SDS011;11780;13.904;100.620;2023-12-14T19:40:25;35.83;;;28.25;;
23222;SDS011;11780;13.904;100.620;2023-12-14T19:42:55;33.67;;;26.97;;
23222;SDS011;11780;13.904;100.620;2023-12-14T19:45:26;34.60;;;28.27;;
23222;SDS011;11780;13.904;100.620;2023-12-14T19:47:56;31.43;;;26.53;;
23222;SDS011;11780;13.904;100.620;2023-12-14T19:50:28;33.95;;;27.63;;
23222;SDS011;11780;13.904;100.620;2023-12-14T19:52:58;35.07;;;26.80;;
23222;SDS011;11780;13.904;100.620;2023-12-14T19:55:29;38.03;;;29.20;;
23222;SDS011;11780;13.904;100.620;2023-12-14T19:57:59;32.80;;;26.80;;
23222;SDS011;11780;13.904;100.620;2023-12-14T20:00:30;31.97;;;27.83;;
23222;SDS011;11780;13.904;100.620;2023-12-14T20:03:01;34.03;;;27.93;;
23222;SDS011;11780;13.904;100.620;2023-12-14T20:05:31;34.30;;;27.47;;
23222;SDS011;11780;13.904;100.620;2023-12-14T20:08:02;41.77;;;28.83;;
23222;SDS011;11780;13.904;100.620;2023-12-14T20:10:32;37.57;;;27.83;;
23222;SDS011;11780;13.904;100.620;2023-12-14T20:13:03;37.45;;;27.38;;
23222;SDS011;11780;13.904;100.620;2023-12-14T20:15:39;39.25;;;29.55;;
23222;SDS011;11780;13.904;100.620;2023-12-14T20:18:10;34.10;;;29.33;;
23222;SDS011;11780;13.904;100.620;2023-12-14T20:20:41;37.15;;;28.27;;
23222;SDS011;11780;13.904;100.620;2023-12-14T20:23:12;36.30;;;29.23;;
23222;SDS011;11780;13.904;100.620;2023-12-14T20:25:43;36.25;;;29.10;;
23222;SDS011;11780;13.904;100.620;2023-12-14T20:28:14;41.87;;;28.87;;
23222;SDS011;11780;13.904;100.620;2023-12-14T20:30:45;34.87;;;27.77;;
23222;SDS011;11780;13.904;100.620;2023-12-14T20:33:19;33.65;;;29.25;;
23222;SDS011;11780;13.904;100.620;2023-12-14T20:35:49;37.95;;;28.92;;
23222;SDS011;11780;13.904;100.620;2023-12-14T20:38:22;37.88;;;28.45;;
23222;SDS011;11780;13.904;100.620;2023-12-14T20:44:03;36.67;;;28.17;;
23222;SDS011;11780;13.904;100.620;2023-12-14T20:47:13;35.85;;;28.23;;
23222;SDS011;11780;13.904;100.620;2023-12-14T20:49:43;35.57;;;27.27;;
23222;SDS011;11780;13.904;100.620;2023-12-14T20:52:14;38.95;;;29.30;;
23222;SDS011;11780;13.904;100.620;2023-12-14T20:54:45;34.90;;;27.70;;
23222;SDS011;11780;13.904;100.620;2023-12-14T20:57:15;37.63;;;29.50;;
23222;SDS011;11780;13.904;100.620;2023-12-14T20:59:46;32.33;;;27.10;;
23222;SDS011;11780;13.904;100.620;2023-12-14T21:02:19;38.20;;;28.90;;
23222;SDS011;11780;13.904;100.620;2023-12-14T21:04:50;35.15;;;28.65;;
23222;SDS011;11780;13.904;100.620;2023-12-14T21:07:20;34.97;;;28.67;;
23222;SDS011;11780;13.904;100.620;2023-12-14T21:09:51;34.78;;;28.05;;
23222;SDS011;11780;13.904;100.620;2023-12-14T21:12:22;40.50;;;28.40;;
23222;SDS011;11780;13.904;100.620;2023-12-14T21:14:53;41.05;;;29.52;;
23222;SDS011;11780;13.904;100.620;2023-12-14T21:17:24;36.10;;;28.97;;
23222;SDS011;11780;13.904;100.620;2023-12-14T21:19:54;42.45;;;29.55;;
23222;SDS011;11780;13.904;100.620;2023-12-14T21:22:25;36.92;;;27.73;;
23222;SDS011;11780;13.904;100.620;2023-12-14T21:24:56;38.23;;;29.53;;
23222;SDS011;11780;13.904;100.620;2023-12-14T21:27:30;36.45;;;28.05;;
23222;SDS011;11780;13.904;100.620;2023-12-14T21:30:19;39.20;;;29.08;;
23222;SDS011;11780;13.904;100.620;2023-12-14T21:32:50;38.22;;;29.08;;
23222;SDS011;11780;13.904;100.620;2023-12-14T21:35:21;38.20;;;30.10;;
23222;SDS011;11780;13.904;100.620;2023-12-14T21:37:51;40.03;;;30.42;;
23222;SDS011;11780;13.904;100.620;2023-12-14T21:40:22;41.83;;;29.60;;
23222;SDS011;11780;13.904;100.620;2023-12-14T21:42:53;36.67;;;28.40;;
23222;SDS011;11780;13.904;100.620;2023-12-14T21:45:23;40.77;;;29.10;;
23222;SDS011;11780;13.904;100.620;2023-12-14T21:47:54;37.72;;;29.02;;
23222;SDS011;11780;13.904;100.620;2023-12-14T21:50:25;40.55;;;29.88;;
23222;SDS011;11780;13.904;100.620;2023-12-14T21:52:56;41.58;;;30.15;;
23222;SDS011;11780;13.904;100.620;2023-12-14T21:55:26;42.83;;;32.07;;
23222;SDS011;11780;13.904;100.620;2023-12-14T21:57:57;38.27;;;30.47;;
23222;SDS011;11780;13.904;100.620;2023-12-14T22:00:28;40.88;;;31.65;;
23222;SDS011;11780;13.904;100.620;2023-12-14T22:02:59;40.03;;;28.73;;
23222;SDS011;11780;13.904;100.620;2023-12-14T22:08:48;37.72;;;28.27;;
23222;SDS011;11780;13.904;100.620;2023-12-14T22:11:22;39.70;;;29.97;;
23222;SDS011;11780;13.904;100.620;2023-12-14T22:13:53;37.10;;;29.90;;
23222;SDS011;11780;13.904;100.620;2023-12-14T22:16:23;38.20;;;29.20;;
23222;SDS011;11780;13.904;100.620;2023-12-14T22:18:54;37.53;;;29.90;;
23222;SDS011;11780;13.904;100.620;2023-12-14T22:21:25;41.40;;;29.77;;
23222;SDS011;11780;13.904;100.620;2023-12-14T22:23:55;39.07;;;29.70;;
23222;SDS011;11780;13.904;100.620;2023-12-14T22:26:26;41.77;;;30.40;;
23222;SDS011;11780;13.904;100.620;2023-12-14T22:28:57;40.97;;;29.58;;
23222;SDS011;11780;13.904;100.620;2023-12-14T22:31:27;43.50;;;29.80;;
23222;SDS011;11780;13.904;100.620;2023-12-14T22:33:58;44.13;;;30.10;;
23222;SDS011;11780;13.904;100.620;2023-12-14T22:36:29;38.53;;;31.60;;
23222;SDS011;11780;13.904;100.620;2023-12-14T22:39:00;45.88;;;31.30;;
23222;SDS011;11780;13.904;100.620;2023-12-14T22:43:41;40.78;;;31.83;;
23222;SDS011;11780;13.904;100.620;2023-12-14T22:46:12;41.60;;;31.85;;
23222;SDS011;11780;13.904;100.620;2023-12-14T22:48:43;43.65;;;33.35;;
23222;SDS011;11780;13.904;100.620;2023-12-14T22:51:14;42.50;;;31.27;;
23222;SDS011;11780;13.904;100.620;2023-12-14T22:53:47;46.03;;;31.98;;
23222;SDS011;11780;13.904;100.620;2023-12-14T22:56:21;45.58;;;31.25;;
23222;SDS011;11780;13.904;100.620;2023-12-14T22:58:53;44.58;;;31.48;;
23222;SDS011;11780;13.904;100.620;2023-12-14T23:04:03;39.85;;;31.83;;
23222;SDS011;11780;13.904;100.620;2023-12-14T23:06:34;40.63;;;31.70;;
23222;SDS011;11780;13.904;100.620;2023-12-14T23:09:05;37.42;;;31.23;;
23222;SDS011;11780;13.904;100.620;2023-12-14T23:11:36;42.38;;;31.80;;
23222;SDS011;11780;13.904;100.620;2023-12-14T23:14:06;38.60;;;31.27;;
23222;SDS011;11780;13.904;100.620;2023-12-14T23:19:12;41.60;;;31.08;;
23222;SDS011;11780;13.904;100.620;2023-12-14T23:21:43;42.35;;;32.38;;
23222;SDS011;11780;13.904;100.620;2023-12-14T23:24:13;36.57;;;31.53;;
23222;SDS011;11780;13.904;100.620;2023-12-14T23:26:44;45.05;;;31.83;;
23222;SDS011;11780;13.904;100.620;2023-12-14T23:29:14;38.83;;;31.10;;
23222;SDS011;11780;13.904;100.620;2023-12-14T23:31:45;40.15;;;31.48;;
23222;SDS011;11780;13.904;100.620;2023-12-14T23:34:15;41.53;;;32.80;;
23222;SDS011;11780;13.904;100.620;2023-12-14T23:36:46;37.40;;;31.40;;
23222;SDS011;11780;13.904;100.620;2023-12-14T23:39:17;40.92;;;30.05;;
23222;SDS011;11780;13.904;100.620;2023-12-14T23:41:48;44.03;;;32.70;;
23222;SDS011;11780;13.904;100.620;2023-12-14T23:44:19;44.80;;;34.17;;
23222;SDS011;11780;13.904;100.620;2023-12-14T23:46:53;45.45;;;35.03;;
23222;SDS011;11780;13.904;100.620;2023-12-14T23:49:24;42.50;;;34.53;;
23222;SDS011;11780;13.904;100.620;2023-12-14T23:51:54;41.60;;;32.47;;
23222;SDS011;11780;13.904;100.620;2023-12-14T23:54:25;45.13;;;34.03;;
23222;SDS011;11780;13.904;100.620;2023-12-14T23:56:56;38.42;;;32.28;;
23222;SDS011;11780;13.904;100.620;2023-12-14T23:59:26;40.93;;;32.90;;
